createdAt,value
2019-02-06T00:01:20.861Z,79.80
2019-02-06T00:03:49.961Z,79.30
2019-02-06T00:06:18.877Z,79.50
2019-02-06T00:08:48.681Z,79.70
2019-02-06T00:11:17.807Z,79.70
2019-02-06T00:13:46.823Z,79.10
2019-02-06T00:16:15.946Z,79.50
2019-02-06T00:18:44.931Z,79.50
2019-02-06T00:21:14.177Z,79.00
2019-02-06T00:23:43.243Z,79.40
2019-02-06T00:26:12.963Z,79.80
2019-02-06T00:28:42.405Z,79.40
2019-02-06T00:31:12.268Z,78.00
2019-02-06T00:33:41.325Z,79.40
2019-02-06T00:36:10.411Z,78.80
2019-02-06T00:38:39.505Z,78.00
2019-02-06T00:41:09.549Z,79.60
2019-02-06T00:43:38.580Z,78.80
2019-02-06T00:46:07.541Z,79.10
2019-02-06T00:48:36.471Z,78.80
2019-02-06T00:51:05.464Z,78.50
2019-02-06T00:53:34.557Z,78.90
2019-02-06T00:56:05.892Z,78.10
2019-02-06T00:58:34.825Z,78.90
2019-02-06T01:01:04.769Z,78.60
2019-02-06T01:03:33.920Z,79.00
2019-02-06T01:06:03.078Z,79.10
2019-02-06T01:08:32.084Z,78.60
2019-02-06T01:11:01.721Z,78.40
2019-02-06T01:13:30.697Z,79.30
2019-02-06T01:15:59.637Z,79.30
2019-02-06T01:18:28.966Z,79.00
2019-02-06T01:20:57.973Z,79.30
2019-02-06T01:23:27.873Z,78.60
2019-02-06T01:25:56.893Z,79.70
2019-02-06T01:28:26.410Z,78.30
2019-02-06T01:31:02.284Z,78.50
2019-02-06T01:33:32.029Z,78.60
2019-02-06T01:36:00.943Z,78.20
2019-02-06T01:38:29.957Z,78.70
2019-02-06T01:40:59.225Z,78.50
2019-02-06T01:43:28.222Z,78.70
2019-02-06T01:45:57.262Z,78.60
2019-02-06T01:48:26.181Z,79.00
2019-02-06T01:50:55.186Z,78.90
2019-02-06T01:53:24.228Z,79.20
2019-02-06T01:55:53.160Z,79.20
2019-02-06T01:58:22.484Z,79.60
2019-02-06T02:00:51.460Z,79.60
2019-02-06T02:03:20.825Z,79.30
2019-02-06T02:06:01.320Z,79.00
2019-02-06T02:08:20.962Z,79.90
2019-02-06T02:10:49.999Z,79.40
2019-02-06T02:13:19.361Z,78.90
2019-02-06T02:15:48.369Z,79.10
2019-02-06T02:18:17.324Z,79.50
2019-02-06T02:20:46.326Z,78.80
2019-02-06T02:23:15.381Z,79.00
2019-02-06T02:25:44.241Z,79.30
2019-02-06T02:28:13.520Z,79.50
2019-02-06T02:30:46.237Z,79.10
2019-02-06T02:33:15.244Z,80.00
2019-02-06T02:35:44.354Z,79.80
2019-02-06T02:38:13.289Z,79.50
2019-02-06T02:40:44.050Z,80.00
2019-02-06T02:43:13.057Z,80.10
2019-02-06T02:45:41.998Z,79.90
2019-02-06T02:48:11.009Z,80.20
2019-02-06T02:50:40.319Z,80.00
2019-02-06T02:53:09.325Z,79.90
2019-02-06T02:55:38.324Z,80.30
2019-02-06T02:58:08.529Z,79.70
2019-02-06T03:01:05.906Z,79.90
2019-02-06T03:03:41.517Z,80.00
2019-02-06T03:06:11.766Z,79.80
2019-02-06T03:08:41.180Z,79.90
2019-02-06T03:11:10.177Z,79.90
2019-02-06T03:13:39.163Z,80.10
2019-02-06T03:16:08.142Z,80.20
2019-02-06T03:18:37.238Z,80.20
2019-02-06T03:21:06.736Z,80.10
2019-02-06T03:23:35.941Z,79.90
2019-02-06T03:26:04.990Z,79.70
2019-02-06T03:28:33.991Z,79.60
2019-02-06T03:31:03.405Z,80.20
2019-02-06T03:33:32.409Z,80.20
2019-02-06T03:36:02.576Z,79.70
2019-02-06T03:38:31.594Z,79.80
2019-02-06T03:41:01.387Z,79.60
2019-02-06T03:43:32.270Z,79.40
2019-02-06T03:46:01.324Z,80.10
2019-02-06T03:48:30.386Z,79.80
2019-02-06T03:51:00.202Z,79.60
2019-02-06T03:53:29.142Z,80.00
2019-02-06T03:55:58.152Z,80.10
2019-02-06T03:58:27.094Z,80.30
2019-02-06T04:00:56.031Z,80.20
2019-02-06T04:03:25.120Z,80.20
2019-02-06T04:05:54.938Z,80.30
2019-02-06T04:08:24.169Z,80.70
2019-02-06T04:10:53.126Z,80.70
2019-02-06T04:13:22.128Z,81.10
2019-02-06T04:15:51.004Z,81.30
2019-02-06T04:18:20.018Z,81.30
2019-02-06T04:20:49.014Z,81.50
2019-02-06T04:23:18.668Z,81.60
2019-02-06T04:25:49.093Z,81.80
2019-02-06T04:28:18.018Z,81.50
2019-02-06T04:30:46.964Z,81.70
2019-02-06T04:33:16.007Z,81.90
2019-02-06T04:35:45.016Z,82.00
2019-02-06T04:38:14.230Z,81.80
2019-02-06T04:40:43.220Z,81.70
2019-02-06T04:43:12.150Z,80.90
2019-02-06T04:45:41.157Z,81.80
2019-02-06T04:48:10.174Z,81.90
2019-02-06T04:50:39.197Z,81.80
2019-02-06T04:53:08.568Z,81.90
2019-02-06T04:55:37.516Z,82.00
2019-02-06T04:58:06.526Z,82.20
2019-02-06T05:00:35.396Z,82.40
2019-02-06T05:03:04.427Z,82.40
2019-02-06T05:05:33.713Z,82.50
2019-02-06T05:08:02.639Z,82.50
2019-02-06T05:10:31.762Z,82.70
2019-02-06T05:13:00.618Z,83.00
2019-02-06T05:15:29.576Z,83.50
2019-02-06T05:17:59.286Z,83.00
2019-02-06T05:20:35.420Z,83.20
2019-02-06T05:23:04.612Z,83.20
2019-02-06T05:25:33.648Z,83.60
2019-02-06T05:28:02.662Z,83.80
2019-02-06T05:30:31.687Z,83.20
2019-02-06T05:33:00.549Z,83.10
2019-02-06T05:35:29.897Z,83.00
2019-02-06T05:37:58.932Z,83.30
2019-02-06T05:40:28.242Z,83.30
2019-02-06T05:42:57.307Z,83.30
2019-02-06T05:45:26.418Z,84.10
2019-02-06T05:47:58.926Z,82.90
2019-02-06T05:50:27.869Z,83.30
2019-02-06T05:52:56.806Z,83.30
2019-02-06T05:55:26.285Z,83.00
2019-02-06T05:57:55.940Z,83.20
2019-02-06T06:00:30.943Z,83.00
2019-02-06T06:02:59.962Z,83.20
2019-02-06T06:05:29.030Z,83.10
2019-02-06T06:07:58.673Z,83.20
2019-02-06T06:10:27.976Z,83.20
2019-02-06T06:12:56.977Z,83.30
2019-02-06T06:15:26.010Z,83.30
2019-02-06T06:17:55.098Z,83.50
2019-02-06T06:20:24.194Z,83.60
2019-02-06T06:22:53.170Z,83.30
2019-02-06T06:25:22.231Z,83.50
2019-02-06T06:27:51.326Z,83.90
2019-02-06T06:30:20.718Z,83.60
2019-02-06T06:32:49.745Z,83.30
2019-02-06T06:35:18.961Z,83.80
2019-02-06T06:37:57.598Z,83.60
2019-02-06T06:40:20.899Z,83.60
2019-02-06T06:42:49.969Z,83.30
2019-02-06T06:45:21.102Z,83.40
2019-02-06T06:47:50.229Z,83.50
2019-02-06T06:50:21.384Z,83.70
2019-02-06T06:52:50.412Z,83.60
2019-02-06T06:55:19.414Z,83.40
2019-02-06T06:57:48.409Z,83.60
2019-02-06T07:00:28.138Z,83.80
2019-02-06T07:02:57.208Z,83.60
2019-02-06T07:05:27.728Z,83.80
2019-02-06T07:08:08.789Z,83.80
2019-02-06T07:10:27.853Z,83.70
2019-02-06T07:12:56.946Z,83.70
2019-02-06T07:15:28.582Z,84.00
2019-02-06T07:17:57.625Z,83.70
2019-02-06T07:20:28.697Z,83.70
2019-02-06T07:22:57.663Z,83.80
2019-02-06T07:25:26.617Z,84.10
2019-02-06T07:27:55.634Z,84.00
2019-02-06T07:30:29.887Z,83.80
2019-02-06T07:32:59.192Z,84.60
2019-02-06T07:35:28.222Z,84.50
2019-02-06T07:37:57.578Z,85.50
2019-02-06T07:40:26.960Z,84.70
2019-02-06T07:42:55.993Z,84.70
2019-02-06T07:45:25.035Z,84.70
2019-02-06T07:47:54.548Z,84.70
2019-02-06T07:50:30.053Z,85.00
2019-02-06T07:52:59.564Z,85.10
2019-02-06T07:55:31.714Z,85.20
2019-02-06T07:58:03.772Z,85.20
2019-02-06T08:00:32.762Z,85.30
2019-02-06T08:03:02.043Z,85.20
2019-02-06T08:05:31.167Z,85.30
2019-02-06T08:08:03.898Z,85.20
2019-02-06T08:10:34.244Z,85.00
2019-02-06T08:13:15.176Z,85.20
2019-02-06T08:15:49.679Z,84.90
2019-02-06T08:18:38.076Z,85.30
2019-02-06T08:21:07.209Z,85.10
2019-02-06T08:23:36.277Z,84.90
2019-02-06T08:26:08.374Z,85.30
2019-02-06T08:28:38.641Z,85.30
2019-02-06T08:31:13.620Z,85.20
2019-02-06T08:33:42.752Z,85.40
2019-02-06T08:36:11.972Z,85.50
2019-02-06T08:38:47.685Z,85.60
2019-02-06T08:41:15.097Z,85.70
2019-02-06T08:43:56.813Z,85.70
2019-02-06T08:46:25.894Z,85.10
2019-02-06T08:49:00.675Z,85.20
2019-02-06T08:51:32.216Z,85.00
2019-02-06T08:54:03.660Z,85.10
2019-02-06T08:56:32.689Z,85.20
2019-02-06T08:59:03.226Z,85.40
2019-02-06T09:01:32.463Z,85.50
2019-02-06T09:04:05.729Z,85.10
2019-02-06T09:06:35.475Z,85.10
2019-02-06T09:09:15.235Z,85.10
2019-02-06T09:11:50.333Z,85.50
2019-02-06T09:14:19.698Z,85.80
2019-02-06T09:16:54.219Z,85.70
2019-02-06T09:19:23.213Z,85.70
2019-02-06T09:21:52.249Z,85.90
2019-02-06T09:24:21.276Z,85.90
2019-02-06T09:26:52.307Z,86.60
2019-02-06T09:29:21.337Z,85.90
2019-02-06T09:31:51.198Z,85.70
2019-02-06T09:34:20.248Z,86.00
2019-02-06T09:36:49.201Z,86.20
2019-02-06T09:39:18.209Z,86.10
2019-02-06T09:41:47.164Z,86.20
2019-02-06T09:44:16.164Z,86.10
2019-02-06T09:46:45.532Z,86.10
2019-02-06T09:49:15.260Z,86.40
2019-02-06T09:51:44.260Z,86.30
2019-02-06T09:54:13.264Z,86.50
2019-02-06T09:56:42.298Z,86.40
2019-02-06T09:59:11.385Z,86.30
2019-02-06T10:01:44.572Z,86.20
2019-02-06T10:04:13.809Z,86.50
2019-02-06T10:06:43.167Z,86.50
2019-02-06T10:09:22.300Z,86.20
2019-02-06T10:11:42.786Z,86.10
2019-02-06T10:14:11.700Z,86.20
2019-02-06T10:16:40.664Z,86.20
2019-02-06T10:19:09.996Z,86.20
2019-02-06T10:21:38.973Z,86.20
2019-02-06T10:24:07.985Z,86.20
2019-02-06T10:26:37.009Z,86.20
2019-02-06T10:29:06.466Z,86.10
2019-02-06T10:31:35.466Z,86.40
2019-02-06T10:34:04.499Z,86.50
2019-02-06T10:36:34.380Z,86.40
2019-02-06T10:39:05.114Z,86.30
2019-02-06T10:41:34.092Z,86.40
2019-02-06T10:44:03.190Z,86.70
2019-02-06T10:46:32.473Z,86.60
2019-02-06T10:49:01.510Z,87.00
2019-02-06T10:51:30.794Z,86.70
2019-02-06T10:53:59.818Z,86.70
2019-02-06T10:56:28.863Z,86.90
2019-02-06T10:58:57.906Z,87.00
2019-02-06T11:01:26.914Z,87.00
2019-02-06T11:03:56.012Z,86.80
2019-02-06T11:06:25.215Z,86.90
2019-02-06T11:08:54.257Z,86.90
2019-02-06T11:11:23.301Z,87.10
2019-02-06T11:13:52.301Z,87.00
2019-02-06T11:16:21.317Z,87.10
2019-02-06T11:18:50.328Z,87.00
2019-02-06T11:21:19.834Z,87.40
2019-02-06T11:23:48.775Z,88.00
2019-02-06T11:26:17.873Z,87.20
2019-02-06T11:28:46.916Z,87.10
2019-02-06T11:31:16.033Z,87.10
2019-02-06T11:33:46.793Z,87.00
2019-02-06T11:36:23.904Z,87.00
2019-02-06T11:38:47.048Z,87.30
2019-02-06T11:41:16.336Z,86.20
2019-02-06T11:44:04.619Z,87.00
2019-02-06T11:46:33.556Z,87.00
2019-02-06T11:49:02.577Z,87.00
2019-02-06T11:51:31.436Z,86.80
2019-02-06T11:54:07.713Z,86.90
2019-02-06T11:56:36.817Z,86.90
2019-02-06T11:59:06.218Z,87.00
2019-02-06T12:01:39.873Z,87.00
2019-02-06T12:04:08.949Z,86.90
2019-02-06T12:06:38.160Z,87.10
2019-02-06T12:09:12.687Z,87.10
2019-02-06T12:11:44.696Z,87.10
2019-02-06T12:14:14.188Z,87.20
2019-02-06T12:16:43.232Z,87.00
2019-02-06T12:19:12.272Z,87.20
2019-02-06T12:21:41.316Z,87.20
2019-02-06T12:24:12.608Z,87.40
2019-02-06T12:26:41.466Z,87.20
2019-02-06T12:29:20.113Z,86.90
2019-02-06T12:31:49.645Z,87.10
2019-02-06T12:34:18.729Z,87.20
2019-02-06T12:36:47.781Z,87.00
2019-02-06T12:39:17.004Z,87.00
2019-02-06T12:41:46.024Z,86.90
2019-02-06T12:44:15.013Z,86.80
2019-02-06T12:46:44.537Z,86.60
2019-02-06T12:49:14.614Z,86.80
2019-02-06T12:51:43.828Z,86.90
2019-02-06T12:54:12.778Z,86.80
2019-02-06T12:56:41.830Z,86.60
2019-02-06T12:59:11.106Z,86.90
2019-02-06T13:01:40.132Z,86.80
2019-02-06T13:04:09.413Z,86.80
2019-02-06T13:06:38.484Z,87.10
2019-02-06T13:09:09.905Z,86.80
2019-02-06T13:11:38.956Z,87.00
2019-02-06T13:14:07.922Z,86.90
2019-02-06T13:16:36.859Z,86.80
2019-02-06T13:19:05.890Z,87.20
2019-02-06T13:21:35.021Z,87.20
2019-02-06T13:24:04.673Z,87.40
2019-02-06T13:26:33.683Z,87.10
2019-02-06T13:29:02.736Z,87.20
2019-02-06T13:31:31.771Z,87.00
2019-02-06T13:34:00.826Z,87.30
2019-02-06T13:36:30.020Z,87.10
2019-02-06T13:38:59.022Z,87.20
2019-02-06T13:41:27.961Z,87.20
2019-02-06T13:43:56.913Z,86.80
2019-02-06T13:46:25.971Z,87.30
2019-02-06T13:48:55.481Z,86.80
2019-02-06T13:51:24.512Z,87.00
2019-02-06T13:53:53.542Z,87.10
2019-02-06T13:56:22.553Z,87.10
2019-02-06T13:58:51.965Z,87.30
2019-02-06T14:01:25.801Z,87.20
2019-02-06T14:03:51.687Z,87.20
2019-02-06T14:06:20.725Z,87.00
2019-02-06T14:08:49.679Z,87.10
2019-02-06T14:11:18.691Z,86.90
2019-02-06T14:13:48.465Z,87.00
2019-02-06T14:16:17.480Z,86.90
2019-02-06T14:18:46.884Z,86.90
2019-02-06T14:21:15.819Z,86.90
2019-02-06T14:24:29.056Z,86.90
2019-02-06T14:27:21.182Z,87.10
2019-02-06T14:30:27.768Z,87.00
2019-02-06T14:33:22.053Z,86.90
2019-02-06T14:36:25.757Z,86.90
2019-02-06T14:39:25.328Z,86.60
2019-02-06T14:42:32.507Z,86.90
2019-02-06T14:45:44.152Z,86.80
2019-02-06T14:49:00.108Z,86.60
2019-02-06T14:52:13.804Z,86.90
2019-02-06T14:55:17.507Z,86.80
2019-02-06T14:58:27.000Z,87.00
2019-02-06T15:01:24.315Z,86.60
2019-02-06T15:04:15.793Z,86.60
2019-02-06T15:07:12.866Z,86.60
2019-02-06T15:10:25.006Z,86.40
2019-02-06T15:13:25.383Z,86.30
2019-02-06T15:16:21.037Z,86.30
2019-02-06T15:19:28.505Z,86.20
2019-02-06T15:22:35.368Z,86.30
2019-02-06T15:25:31.318Z,86.20
2019-02-06T15:28:53.537Z,86.20
2019-02-06T15:31:49.012Z,86.00
2019-02-06T15:34:51.660Z,86.10
2019-02-06T15:37:45.710Z,86.00
2019-02-06T15:40:39.314Z,86.10
2019-02-06T15:43:47.019Z,86.10
2019-02-06T15:46:54.012Z,86.30
2019-02-06T15:49:46.805Z,86.30
2019-02-06T15:52:35.528Z,86.40
2019-02-06T15:55:25.216Z,86.30
2019-02-06T15:58:28.984Z,86.30
2019-02-06T16:01:34.636Z,86.10
2019-02-06T16:05:03.433Z,86.30
2019-02-06T16:08:12.565Z,86.30
2019-02-06T16:11:04.621Z,86.30
2019-02-06T16:13:51.689Z,86.20
2019-02-06T16:16:59.028Z,86.30
2019-02-06T16:19:52.458Z,86.20
2019-02-06T16:23:07.690Z,86.30
2019-02-06T16:26:05.377Z,86.10
2019-02-06T16:29:26.021Z,86.00
2019-02-06T16:32:38.393Z,86.20
2019-02-06T16:35:58.427Z,86.10
2019-02-06T16:38:41.593Z,86.10
2019-02-06T16:41:33.372Z,86.20
2019-02-06T16:44:18.160Z,86.00
2019-02-06T16:47:27.484Z,86.00
2019-02-06T16:50:24.020Z,85.90
2019-02-06T16:53:53.679Z,85.90
2019-02-06T16:56:58.530Z,85.90
2019-02-06T17:00:00.887Z,85.80
2019-02-06T17:03:02.986Z,86.20
2019-02-06T17:06:09.328Z,86.20
2019-02-06T17:09:31.770Z,86.40
2019-02-06T17:12:23.225Z,86.40
2019-02-06T17:15:24.029Z,86.50
2019-02-06T17:18:48.844Z,86.70
2019-02-06T17:22:09.008Z,86.40
2019-02-06T17:25:17.728Z,86.30
2019-02-06T17:28:13.964Z,86.30
2019-02-06T17:31:15.837Z,86.40
2019-02-06T17:34:02.381Z,86.40
2019-02-06T17:37:26.190Z,86.40
2019-02-06T17:40:22.237Z,86.50
2019-02-06T17:43:24.677Z,86.40
2019-02-06T17:46:23.908Z,86.50
2019-02-06T17:49:38.788Z,86.70
2019-02-06T17:52:22.456Z,86.50
2019-02-06T17:55:17.699Z,86.20
2019-02-06T17:57:47.880Z,86.20
2019-02-06T18:00:32.706Z,86.20
2019-02-06T18:03:03.775Z,86.10
2019-02-06T18:05:33.077Z,86.10
2019-02-06T18:08:02.769Z,86.00
2019-02-06T18:10:31.900Z,86.20
2019-02-06T18:13:00.827Z,86.20
2019-02-06T18:15:29.755Z,86.10
2019-02-06T18:18:01.463Z,86.30
2019-02-06T18:20:30.364Z,86.50
2019-02-06T18:22:59.971Z,86.50
2019-02-06T18:25:29.194Z,86.30
2019-02-06T18:27:58.598Z,86.20
2019-02-06T18:30:28.537Z,86.20
2019-02-06T18:32:59.860Z,86.50
2019-02-06T18:35:29.176Z,86.20
2019-02-06T18:37:58.293Z,86.40
2019-02-06T18:40:27.714Z,87.20
2019-02-06T18:42:57.496Z,86.30
2019-02-06T18:45:27.877Z,86.30
2019-02-06T18:47:59.048Z,86.30
2019-02-06T18:50:31.055Z,86.40
2019-02-06T18:53:00.498Z,86.00
2019-02-06T18:55:29.590Z,86.50
2019-02-06T18:57:59.208Z,86.60
2019-02-06T19:00:32.262Z,86.50
2019-02-06T19:03:02.153Z,86.60
2019-02-06T19:05:33.915Z,86.60
2019-02-06T19:08:03.216Z,86.50
2019-02-06T19:10:32.369Z,86.50
2019-02-06T19:13:01.765Z,86.40
2019-02-06T19:15:31.940Z,86.40
2019-02-06T19:18:01.048Z,86.50
2019-02-06T19:20:30.150Z,86.20
2019-02-06T19:22:59.194Z,86.30
2019-02-06T19:25:28.308Z,86.50
2019-02-06T19:27:57.432Z,86.40
2019-02-06T19:30:29.073Z,86.50
2019-02-06T19:32:58.822Z,86.50
2019-02-06T19:35:28.120Z,86.40
2019-02-06T19:37:57.582Z,86.60
2019-02-06T19:40:26.654Z,86.60
2019-02-06T19:43:00.488Z,86.70
2019-02-06T19:45:26.416Z,86.60
2019-02-06T19:47:55.920Z,86.80
2019-02-06T19:50:27.152Z,86.80
2019-02-06T19:52:56.232Z,86.80
2019-02-06T19:55:25.446Z,86.70
2019-02-06T19:57:54.740Z,86.70
2019-02-06T20:00:26.376Z,86.70
2019-02-06T20:02:55.478Z,86.80
2019-02-06T20:05:25.740Z,86.60
2019-02-06T20:07:54.838Z,86.60
2019-02-06T20:10:26.574Z,86.50
2019-02-06T20:12:55.532Z,87.50
2019-02-06T20:15:24.921Z,86.70
2019-02-06T20:17:54.405Z,86.60
2019-02-06T20:20:26.133Z,86.30
2019-02-06T20:22:55.818Z,86.70
2019-02-06T20:25:25.217Z,86.60
2019-02-06T20:27:55.016Z,86.40
2019-02-06T20:30:27.835Z,86.30
2019-02-06T20:32:56.970Z,86.30
2019-02-06T20:35:26.103Z,86.20
2019-02-06T20:37:55.562Z,86.30
2019-02-06T20:40:27.094Z,86.40
2019-02-06T20:42:56.136Z,86.40
2019-02-06T20:45:25.054Z,86.30
2019-02-06T20:47:54.161Z,86.20
2019-02-06T20:50:25.296Z,86.40
2019-02-06T20:52:54.405Z,86.30
2019-02-06T20:55:23.909Z,86.30
2019-02-06T20:57:52.861Z,86.30
2019-02-06T21:00:33.229Z,86.30
2019-02-06T21:03:02.309Z,86.30
2019-02-06T21:05:31.389Z,86.20
2019-02-06T21:08:00.818Z,86.20
2019-02-06T21:10:30.562Z,86.40
2019-02-06T21:12:59.678Z,86.40
2019-02-06T21:15:28.736Z,86.60
2019-02-06T21:17:57.748Z,86.70
2019-02-06T21:20:27.055Z,86.40
2019-02-06T21:22:56.857Z,86.10
2019-02-06T21:25:25.873Z,86.60
2019-02-06T21:27:54.991Z,86.80
2019-02-06T21:30:26.487Z,86.70
2019-02-06T21:32:55.666Z,86.80
2019-02-06T21:35:25.054Z,86.60
2019-02-06T21:37:54.154Z,86.60
2019-02-06T21:40:26.659Z,86.50
2019-02-06T21:43:01.899Z,86.60
2019-02-06T21:45:31.020Z,86.50
2019-02-06T21:48:00.101Z,86.60
2019-02-06T21:50:29.034Z,86.70
2019-02-06T21:52:59.228Z,86.70
2019-02-06T21:55:28.298Z,86.70
2019-02-06T21:57:57.489Z,86.80
2019-02-06T22:00:28.805Z,86.90
2019-02-06T22:02:57.821Z,86.90
2019-02-06T22:05:30.408Z,86.70
2019-02-06T22:07:59.508Z,87.60
2019-02-06T22:10:28.469Z,86.90
2019-02-06T22:12:57.324Z,86.90
2019-02-06T22:15:27.602Z,86.90
2019-02-06T22:17:56.607Z,86.90
2019-02-06T22:20:26.192Z,87.00
2019-02-06T22:22:58.011Z,87.10
2019-02-06T22:25:27.121Z,87.30
2019-02-06T22:27:56.116Z,87.40
2019-02-06T22:30:27.030Z,87.50
2019-02-06T22:32:57.192Z,87.40
2019-02-06T22:35:27.005Z,87.40
2019-02-06T22:37:56.087Z,87.50
2019-02-06T22:40:25.323Z,87.30
2019-02-06T22:42:54.968Z,87.70
2019-02-06T22:45:26.146Z,87.70
2019-02-06T22:47:55.229Z,87.30
2019-02-06T22:50:26.113Z,87.80
2019-02-06T22:52:55.201Z,87.50
2019-02-06T22:55:24.236Z,87.70
2019-02-06T22:57:53.217Z,87.90
2019-02-06T23:00:54.889Z,87.90
2019-02-06T23:03:33.220Z,87.70
2019-02-06T23:06:02.300Z,88.00
2019-02-06T23:08:31.421Z,87.60
2019-02-06T23:11:01.597Z,87.70
2019-02-06T23:13:30.540Z,87.60
2019-02-06T23:15:59.676Z,87.60
2019-02-06T23:18:29.024Z,87.70
2019-02-06T23:20:58.034Z,87.70
2019-02-06T23:23:27.812Z,87.60
2019-02-06T23:25:57.178Z,87.40
2019-02-06T23:28:26.198Z,87.80
2019-02-06T23:30:57.792Z,87.90
2019-02-06T23:33:26.784Z,87.60
2019-02-06T23:35:56.001Z,88.00
2019-02-06T23:38:24.940Z,88.00
2019-02-06T23:40:53.961Z,88.00
2019-02-06T23:43:22.885Z,88.20
2019-02-06T23:45:52.913Z,88.20
2019-02-06T23:48:21.836Z,88.30
2019-02-06T23:50:50.705Z,88.10
2019-02-06T23:53:19.710Z,88.30
2019-02-06T23:55:48.632Z,88.40
2019-02-06T23:58:17.636Z,88.30
